createdAt,value
2022-11-17T00:00:34.095Z,12.85
2022-11-17T00:03:01.309Z,12.83
2022-11-17T00:05:28.686Z,12.82
2022-11-17T00:07:56.101Z,12.75
2022-11-17T00:10:23.332Z,12.75
2022-11-17T00:13:09.047Z,12.73
2022-11-17T00:15:36.310Z,12.73
2022-11-17T00:18:21.914Z,12.69
2022-11-17T00:21:07.892Z,12.62
2022-11-17T00:23:50.831Z,12.63
2022-11-17T00:26:23.888Z,12.66
2022-11-17T00:28:55.751Z,12.62
2022-11-17T00:31:42.768Z,12.48
2022-11-17T00:34:16.096Z,12.57
2022-11-17T00:36:44.068Z,12.62
2022-11-17T00:39:13.275Z,12.57
2022-11-17T00:41:40.728Z,12.48
2022-11-17T00:44:08.880Z,12.50
2022-11-17T00:46:37.699Z,12.49
2022-11-17T00:49:06.923Z,12.32
2022-11-17T00:51:34.678Z,12.41
2022-11-17T00:54:02.629Z,12.39
2022-11-17T00:56:29.922Z,12.39
2022-11-17T00:58:57.605Z,12.43
2022-11-17T01:01:25.278Z,12.43
2022-11-17T01:04:03.637Z,12.46
2022-11-17T01:06:37.288Z,12.27
2022-11-17T01:09:06.001Z,12.55
2022-11-17T01:11:33.686Z,12.45
2022-11-17T01:14:01.590Z,12.43
2022-11-17T01:16:30.808Z,12.22
2022-11-17T01:19:01.217Z,12.35
2022-11-17T01:21:30.190Z,12.37
2022-11-17T01:24:00.098Z,12.45
2022-11-17T01:26:30.902Z,12.48
2022-11-17T01:29:00.291Z,12.47
2022-11-17T01:31:30.834Z,12.45
2022-11-17T01:33:58.699Z,12.52
2022-11-17T01:36:29.630Z,12.42
2022-11-17T01:38:57.304Z,12.52
2022-11-17T01:41:27.555Z,12.49
2022-11-17T01:43:59.585Z,12.54
2022-11-17T01:46:29.776Z,12.55
2022-11-17T01:49:22.644Z,12.56
2022-11-17T01:51:55.874Z,12.57
2022-11-17T01:54:26.389Z,12.40
2022-11-17T01:56:58.676Z,12.31
2022-11-17T01:59:38.914Z,12.40
2022-11-17T02:02:07.268Z,12.24
2022-11-17T02:04:35.933Z,12.43
2022-11-17T02:07:09.754Z,12.27
2022-11-17T02:09:41.260Z,12.39
2022-11-17T02:12:12.094Z,12.27
2022-11-17T02:14:40.241Z,12.20
2022-11-17T02:17:14.030Z,12.36
2022-11-17T02:19:45.591Z,12.24
2022-11-17T02:22:50.137Z,12.30
2022-11-17T02:25:53.478Z,12.14
2022-11-17T02:28:30.735Z,12.08
2022-11-17T02:31:29.779Z,12.03
2022-11-17T02:34:00.037Z,12.01
2022-11-17T02:36:44.596Z,11.96
2022-11-17T02:39:44.920Z,11.89
2022-11-17T02:42:44.663Z,11.82
2022-11-17T02:45:26.926Z,11.78
2022-11-17T02:47:58.226Z,11.62
2022-11-17T02:50:28.663Z,11.62
2022-11-17T02:52:56.783Z,11.57
2022-11-17T02:55:23.926Z,11.50
2022-11-17T02:57:51.170Z,11.52
2022-11-17T03:00:20.204Z,11.51
2022-11-17T03:03:05.598Z,11.43
2022-11-17T03:05:57.046Z,11.45
2022-11-17T03:08:42.595Z,11.48
2022-11-17T03:11:11.278Z,11.46
2022-11-17T03:13:44.298Z,11.47
2022-11-17T03:16:37.010Z,11.30
2022-11-17T03:19:19.397Z,11.41
2022-11-17T03:22:08.498Z,11.43
2022-11-17T03:24:58.678Z,11.40
2022-11-17T03:27:29.959Z,11.26
2022-11-17T03:30:03.494Z,11.35
2022-11-17T03:32:37.293Z,11.34
2022-11-17T03:35:19.756Z,11.31
2022-11-17T03:37:53.884Z,11.28
2022-11-17T03:40:25.945Z,11.27
2022-11-17T03:42:58.936Z,11.22
2022-11-17T03:45:30.617Z,11.20
2022-11-17T03:48:04.563Z,11.22
2022-11-17T03:50:37.054Z,11.22
2022-11-17T03:53:05.992Z,11.23
2022-11-17T03:55:54.359Z,11.26
2022-11-17T03:58:27.175Z,11.22
2022-11-17T04:00:57.260Z,11.21
2022-11-17T04:03:29.210Z,11.18
2022-11-17T04:05:56.712Z,11.19
2022-11-17T04:08:26.326Z,11.15
2022-11-17T04:11:11.852Z,11.14
2022-11-17T04:13:57.890Z,11.04
2022-11-17T04:16:25.435Z,11.07
2022-11-17T04:18:58.582Z,11.10
2022-11-17T04:21:26.616Z,11.02
2022-11-17T04:23:53.951Z,11.09
2022-11-17T04:26:39.411Z,11.07
2022-11-17T04:29:06.703Z,11.05
2022-11-17T04:31:34.208Z,11.00
2022-11-17T04:34:03.950Z,11.07
2022-11-17T04:36:40.905Z,11.09
2022-11-17T04:39:08.043Z,11.04
2022-11-17T04:41:54.556Z,10.93
2022-11-17T04:44:27.603Z,11.07
2022-11-17T04:46:56.480Z,10.89
2022-11-17T04:49:25.385Z,11.05
2022-11-17T04:51:55.141Z,11.08
2022-11-17T04:54:26.423Z,11.04
2022-11-17T04:56:55.299Z,11.06
2022-11-17T04:59:23.395Z,11.04
2022-11-17T05:01:50.792Z,11.08
2022-11-17T05:04:42.211Z,11.02
2022-11-17T05:07:11.588Z,11.03
2022-11-17T05:09:42.279Z,11.01
2022-11-17T05:12:28.578Z,10.98
2022-11-17T05:14:56.158Z,10.96
2022-11-17T05:17:23.315Z,10.87
2022-11-17T05:19:50.730Z,10.93
2022-11-17T05:22:39.236Z,10.90
2022-11-17T05:25:07.133Z,10.93
2022-11-17T05:27:35.392Z,10.83
2022-11-17T05:30:05.757Z,10.98
2022-11-17T05:32:32.971Z,10.92
2022-11-17T05:35:00.267Z,10.97
2022-11-17T05:37:27.528Z,10.93
2022-11-17T05:39:54.685Z,10.91
2022-11-17T05:42:22.126Z,10.95
2022-11-17T05:44:51.862Z,10.99
2022-11-17T05:47:19.108Z,10.95
2022-11-17T05:49:46.360Z,10.99
2022-11-17T05:52:15.541Z,10.95
2022-11-17T05:54:42.696Z,10.91
2022-11-17T05:57:15.350Z,10.91
2022-11-17T05:59:51.183Z,10.89
2022-11-17T06:02:25.244Z,10.87
2022-11-17T06:04:52.907Z,10.70
2022-11-17T06:07:20.660Z,10.82
2022-11-17T06:09:48.128Z,10.77
2022-11-17T06:12:15.708Z,10.83
2022-11-17T06:14:43.222Z,10.48
2022-11-17T06:17:25.652Z,10.79
2022-11-17T06:20:14.164Z,10.82
2022-11-17T06:22:47.010Z,10.72
2022-11-17T06:25:17.281Z,10.71
2022-11-17T06:27:45.506Z,10.68
2022-11-17T06:30:13.097Z,10.61
2022-11-17T06:32:44.437Z,10.66
2022-11-17T06:35:13.968Z,10.57
2022-11-17T06:37:41.193Z,10.55
2022-11-17T06:40:10.429Z,10.52
2022-11-17T06:42:58.500Z,10.45
2022-11-17T06:45:26.150Z,10.38
2022-11-17T06:47:54.223Z,10.44
2022-11-17T06:50:21.893Z,10.47
2022-11-17T06:52:49.706Z,10.42
2022-11-17T06:55:17.383Z,10.43
2022-11-17T06:57:50.354Z,10.43
2022-11-17T07:00:21.294Z,10.49
2022-11-17T07:02:48.552Z,10.52
2022-11-17T07:05:15.920Z,10.50
2022-11-17T07:07:43.152Z,10.52
2022-11-17T07:10:10.794Z,10.57
2022-11-17T07:12:37.935Z,10.60
2022-11-17T07:15:05.558Z,10.75
2022-11-17T07:17:32.916Z,10.81
2022-11-17T07:20:00.241Z,11.02
2022-11-17T07:22:27.482Z,11.32
2022-11-17T07:24:54.700Z,11.43
2022-11-17T07:27:22.136Z,11.50
2022-11-17T07:29:51.555Z,11.54
2022-11-17T07:32:18.971Z,11.58
2022-11-17T07:34:46.263Z,11.54
2022-11-17T07:37:13.523Z,11.61
2022-11-17T07:39:40.679Z,11.64
2022-11-17T07:42:08.003Z,11.47
2022-11-17T07:44:35.326Z,11.57
2022-11-17T07:47:02.549Z,11.55
2022-11-17T07:49:29.911Z,11.60
2022-11-17T07:51:57.402Z,11.65
2022-11-17T07:54:24.809Z,11.61
2022-11-17T07:56:52.327Z,11.62
2022-11-17T07:59:21.479Z,11.63
2022-11-17T08:01:49.164Z,11.84
2022-11-17T08:04:16.734Z,11.96
2022-11-17T08:06:44.147Z,12.01
2022-11-17T08:09:14.456Z,12.03
2022-11-17T08:11:41.656Z,11.97
2022-11-17T08:14:08.997Z,12.06
2022-11-17T08:16:36.429Z,12.07
2022-11-17T08:19:06.315Z,12.10
2022-11-17T08:21:33.578Z,12.07
2022-11-17T08:24:00.984Z,12.08
2022-11-17T08:26:28.276Z,12.09
2022-11-17T08:28:58.949Z,12.04
2022-11-17T08:31:26.551Z,12.09
2022-11-17T08:33:53.628Z,12.09
2022-11-17T08:36:20.906Z,12.18
2022-11-17T08:38:48.568Z,12.24
2022-11-17T08:41:15.649Z,12.26
2022-11-17T08:43:43.103Z,12.24
2022-11-17T08:46:14.135Z,12.18
2022-11-17T08:48:41.794Z,12.18
2022-11-17T08:51:10.547Z,12.24
2022-11-17T08:53:37.713Z,12.20
2022-11-17T08:56:10.105Z,12.22
2022-11-17T08:58:42.361Z,12.24
2022-11-17T09:01:18.646Z,12.29
2022-11-17T09:03:47.586Z,12.37
2022-11-17T09:06:16.481Z,12.28
2022-11-17T09:08:46.212Z,12.29
2022-11-17T09:11:25.644Z,12.31
2022-11-17T09:13:52.965Z,12.37
2022-11-17T09:16:20.847Z,12.40
2022-11-17T09:18:47.988Z,12.52
2022-11-17T09:21:16.683Z,12.47
2022-11-17T09:23:44.221Z,12.58
2022-11-17T09:26:13.715Z,12.67
2022-11-17T09:28:41.070Z,12.69
2022-11-17T09:31:16.926Z,12.74
2022-11-17T09:33:44.758Z,12.83
2022-11-17T09:36:14.018Z,12.94
2022-11-17T09:38:41.659Z,13.10
2022-11-17T09:41:17.990Z,13.12
2022-11-17T09:44:26.851Z,13.35
2022-11-17T09:46:53.931Z,13.47
2022-11-17T09:49:30.291Z,13.58
2022-11-17T09:52:02.396Z,13.58
2022-11-17T09:54:53.394Z,13.67
2022-11-17T09:57:30.656Z,13.78
2022-11-17T10:00:22.891Z,13.67
2022-11-17T10:02:52.111Z,13.58
2022-11-17T10:05:29.806Z,13.78
2022-11-17T10:08:03.701Z,13.76
2022-11-17T10:10:40.159Z,13.67
2022-11-17T10:13:25.614Z,13.82
2022-11-17T10:16:08.432Z,13.83
2022-11-17T10:18:38.493Z,13.96
2022-11-17T10:21:08.105Z,14.08
2022-11-17T10:23:44.484Z,14.10
2022-11-17T10:26:15.804Z,14.28
2022-11-17T10:28:43.595Z,14.39
2022-11-17T10:31:10.885Z,14.41
2022-11-17T10:33:45.092Z,14.32
2022-11-17T10:36:20.137Z,14.21
2022-11-17T10:38:50.675Z,14.29
2022-11-17T10:41:25.677Z,14.09
2022-11-17T10:44:07.009Z,14.13
2022-11-17T10:46:45.011Z,14.08
2022-11-17T10:49:28.252Z,14.08
2022-11-17T10:52:19.135Z,14.04
2022-11-17T10:54:46.225Z,13.97
2022-11-17T10:57:20.847Z,13.91
2022-11-17T10:59:57.859Z,13.86
2022-11-17T11:02:37.505Z,13.81
2022-11-17T11:05:12.055Z,13.82
2022-11-17T11:07:40.085Z,13.78
2022-11-17T11:10:16.114Z,13.57
2022-11-17T11:12:54.178Z,13.69
2022-11-17T11:15:26.117Z,13.66
2022-11-17T11:17:53.571Z,13.68
2022-11-17T11:20:30.944Z,13.77
2022-11-17T11:23:22.254Z,13.63
2022-11-17T11:25:56.128Z,13.75
2022-11-17T11:28:32.427Z,13.80
2022-11-17T11:31:12.650Z,13.76
2022-11-17T11:33:45.746Z,13.77
2022-11-17T11:36:23.494Z,13.72
2022-11-17T11:38:57.503Z,13.68
2022-11-17T11:41:41.497Z,13.64
2022-11-17T11:44:29.729Z,13.50
2022-11-17T11:47:12.353Z,13.69
2022-11-17T11:49:51.031Z,13.72
2022-11-17T11:52:26.208Z,13.72
2022-11-17T11:55:07.811Z,13.69
2022-11-17T11:57:43.653Z,13.71
2022-11-17T12:00:18.858Z,13.83
2022-11-17T12:02:56.803Z,13.94
2022-11-17T12:05:37.872Z,14.08
2022-11-17T12:08:23.475Z,14.17
2022-11-17T12:10:56.817Z,14.24
2022-11-17T12:13:25.023Z,14.22
2022-11-17T12:15:54.318Z,14.20
2022-11-17T12:18:21.650Z,14.19
2022-11-17T12:21:04.899Z,14.33
2022-11-17T12:23:54.132Z,14.39
2022-11-17T12:26:27.032Z,14.42
2022-11-17T12:29:22.432Z,14.43
2022-11-17T12:31:51.643Z,14.41
2022-11-17T12:34:26.847Z,14.42
2022-11-17T12:37:20.155Z,14.32
2022-11-17T12:40:04.125Z,14.33
2022-11-17T12:42:35.793Z,14.26
2022-11-17T12:45:07.048Z,14.39
2022-11-17T12:47:35.568Z,14.41
2022-11-17T12:50:09.392Z,14.24
2022-11-17T12:53:01.353Z,14.37
2022-11-17T12:55:28.453Z,14.32
2022-11-17T12:58:06.210Z,14.23
2022-11-17T13:00:53.676Z,14.24
2022-11-17T13:03:41.027Z,14.16
2022-11-17T13:09:08.611Z,14.13
2022-11-17T13:11:36.204Z,14.10
2022-11-17T13:14:17.411Z,14.06
2022-11-17T13:16:50.672Z,14.06
2022-11-17T13:19:38.901Z,14.12
2022-11-17T13:22:19.035Z,14.12
2022-11-17T13:24:49.233Z,14.13
2022-11-17T13:27:26.335Z,14.00
2022-11-17T13:30:32.245Z,14.18
2022-11-17T13:33:03.040Z,14.25
2022-11-17T13:35:35.727Z,14.32
2022-11-17T13:38:06.941Z,14.35
2022-11-17T13:40:36.119Z,14.10
2022-11-17T13:43:05.189Z,14.30
2022-11-17T13:45:32.952Z,14.25
2022-11-17T13:48:00.059Z,14.14
2022-11-17T13:50:27.369Z,14.13
2022-11-17T13:52:58.656Z,14.05
2022-11-17T13:55:27.737Z,14.03
2022-11-17T13:58:01.329Z,14.05
2022-11-17T14:00:29.688Z,14.06
2022-11-17T14:03:26.204Z,13.96
2022-11-17T14:05:59.184Z,14.08
2022-11-17T14:08:32.113Z,14.17
2022-11-17T14:11:09.904Z,14.05
2022-11-17T14:13:43.377Z,14.14
2022-11-17T14:16:26.201Z,14.06
2022-11-17T14:18:58.303Z,14.10
2022-11-17T14:21:26.006Z,13.99
2022-11-17T14:24:03.596Z,13.88
2022-11-17T14:26:31.217Z,13.92
2022-11-17T14:29:02.715Z,13.91
2022-11-17T14:31:31.333Z,13.96
2022-11-17T14:33:58.805Z,13.59
2022-11-17T14:36:26.504Z,13.92
2022-11-17T14:38:53.764Z,13.87
2022-11-17T14:41:20.958Z,13.95
2022-11-17T14:43:48.551Z,13.97
2022-11-17T14:46:24.982Z,13.93
2022-11-17T14:48:53.600Z,13.83
2022-11-17T14:51:22.024Z,13.84
2022-11-17T14:53:49.387Z,13.71
2022-11-17T14:56:19.236Z,13.68
2022-11-17T14:58:47.991Z,13.75
2022-11-17T15:01:24.472Z,13.69
2022-11-17T15:03:53.218Z,13.60
2022-11-17T15:06:21.075Z,13.75
2022-11-17T15:08:54.301Z,13.73
2022-11-17T15:11:21.513Z,13.75
2022-11-17T15:13:48.875Z,13.69
2022-11-17T15:16:16.139Z,13.71
2022-11-17T15:18:48.201Z,13.68
2022-11-17T15:21:16.787Z,13.61
2022-11-17T15:23:44.924Z,13.65
2022-11-17T15:26:14.923Z,13.49
2022-11-17T15:28:42.418Z,13.59
2022-11-17T15:31:10.955Z,13.47
2022-11-17T15:33:40.832Z,13.41
2022-11-17T15:36:10.078Z,13.25
2022-11-17T15:38:37.925Z,13.25
2022-11-17T15:41:06.960Z,13.10
2022-11-17T15:43:38.661Z,13.16
2022-11-17T15:46:11.021Z,13.04
2022-11-17T15:48:40.542Z,12.99
2022-11-17T15:51:08.369Z,12.88
2022-11-17T15:53:37.381Z,12.92
2022-11-17T15:56:09.321Z,12.80
2022-11-17T15:58:36.905Z,12.74
2022-11-17T16:01:11.491Z,12.65
2022-11-17T16:03:40.822Z,12.54
2022-11-17T16:06:09.493Z,12.54
2022-11-17T16:08:37.953Z,12.56
2022-11-17T16:11:06.204Z,12.53
2022-11-17T16:13:34.410Z,12.48
2022-11-17T16:16:02.115Z,12.45
2022-11-17T16:18:30.473Z,12.43
2022-11-17T16:21:04.907Z,12.43
2022-11-17T16:23:38.994Z,12.44
2022-11-17T16:26:06.505Z,12.15
2022-11-17T16:28:33.687Z,12.42
2022-11-17T16:31:01.088Z,12.43
2022-11-17T16:33:28.290Z,12.43
2022-11-17T16:35:55.547Z,12.42
2022-11-17T16:38:23.109Z,12.32
2022-11-17T16:40:50.350Z,12.36
2022-11-17T16:43:17.721Z,12.37
2022-11-17T16:45:46.808Z,12.34
2022-11-17T16:48:19.110Z,12.26
2022-11-17T16:50:50.284Z,12.17
2022-11-17T16:53:18.783Z,12.29
2022-11-17T16:55:46.725Z,12.21
2022-11-17T16:58:14.288Z,12.17
2022-11-17T17:00:41.470Z,12.14
2022-11-17T17:03:08.742Z,12.10
2022-11-17T17:05:40.675Z,12.10
2022-11-17T17:08:08.304Z,12.15
2022-11-17T17:10:35.815Z,12.11
2022-11-17T17:13:03.193Z,12.09
2022-11-17T17:15:30.361Z,12.07
2022-11-17T17:17:58.055Z,12.00
2022-11-17T17:20:25.374Z,11.98
2022-11-17T17:22:55.169Z,11.93
2022-11-17T17:25:26.762Z,11.84
2022-11-17T17:27:58.772Z,11.82
2022-11-17T17:30:26.464Z,11.82
2022-11-17T17:32:55.907Z,11.78
2022-11-17T17:35:24.538Z,11.78
2022-11-17T17:37:52.475Z,11.77
2022-11-17T17:40:20.510Z,11.77
2022-11-17T17:43:17.189Z,11.75
2022-11-17T17:45:44.711Z,11.73
2022-11-17T17:48:12.737Z,11.79
2022-11-17T17:50:40.867Z,11.68
2022-11-17T17:53:12.416Z,11.66
2022-11-17T17:55:40.536Z,11.70
2022-11-17T17:58:09.376Z,11.67
2022-11-17T18:00:38.293Z,11.64
2022-11-17T18:03:06.985Z,11.66
2022-11-17T18:05:34.779Z,11.64
2022-11-17T18:08:05.560Z,11.65
2022-11-17T18:10:33.656Z,11.64
2022-11-17T18:13:05.158Z,11.68
2022-11-17T18:15:38.762Z,11.83
2022-11-17T18:18:06.256Z,11.83
2022-11-17T18:20:34.687Z,11.83
2022-11-17T18:23:02.475Z,11.79
2022-11-17T18:25:33.055Z,11.78
2022-11-17T18:28:01.716Z,11.66
2022-11-17T18:30:28.942Z,11.73
2022-11-17T18:33:01.712Z,11.71
2022-11-17T18:35:30.358Z,11.74
2022-11-17T18:38:00.440Z,11.82
2022-11-17T18:40:28.108Z,11.83
2022-11-17T18:42:58.734Z,11.78
2022-11-17T18:45:26.463Z,11.73
2022-11-17T18:47:53.851Z,11.68
2022-11-17T18:50:21.154Z,11.73
2022-11-17T18:52:48.514Z,11.73
2022-11-17T18:55:15.801Z,11.71
2022-11-17T18:57:45.044Z,11.67
2022-11-17T19:00:13.496Z,11.63
2022-11-17T19:02:40.639Z,11.61
2022-11-17T19:05:08.732Z,11.56
2022-11-17T19:07:36.143Z,11.53
2022-11-17T19:10:03.710Z,11.45
2022-11-17T19:12:30.988Z,11.43
2022-11-17T19:14:58.458Z,11.41
2022-11-17T19:17:26.798Z,11.37
2022-11-17T19:19:56.940Z,11.32
2022-11-17T19:22:25.284Z,11.30
2022-11-17T19:24:53.614Z,11.30
2022-11-17T19:27:28.039Z,11.26
2022-11-17T19:29:56.846Z,11.29
2022-11-17T19:32:26.659Z,11.36
2022-11-17T19:35:11.260Z,11.29
2022-11-17T19:37:44.330Z,11.25
2022-11-17T19:40:19.361Z,11.25
2022-11-17T19:42:52.180Z,11.26
2022-11-17T19:45:21.792Z,11.20
2022-11-17T19:47:50.196Z,11.18
2022-11-17T19:50:18.393Z,11.12
2022-11-17T19:52:45.582Z,11.06
2022-11-17T19:55:12.672Z,11.03
2022-11-17T19:57:40.202Z,11.01
2022-11-17T20:00:09.498Z,10.99
2022-11-17T20:02:40.845Z,10.92
2022-11-17T20:05:11.667Z,10.82
2022-11-17T20:07:47.274Z,10.81
2022-11-17T20:10:20.636Z,10.80
2022-11-17T20:12:51.798Z,10.71
2022-11-17T20:15:33.826Z,10.68
2022-11-17T20:18:02.954Z,10.66
2022-11-17T20:20:35.495Z,10.60
2022-11-17T20:23:14.352Z,10.60
2022-11-17T20:25:43.513Z,10.58
2022-11-17T20:28:17.227Z,10.49
2022-11-17T20:30:45.498Z,10.54
2022-11-17T20:33:14.470Z,10.48
2022-11-17T20:35:42.104Z,10.21
2022-11-17T20:38:13.130Z,10.31
2022-11-17T20:40:42.874Z,10.33
2022-11-17T20:43:10.072Z,10.31
2022-11-17T20:45:37.402Z,10.32
2022-11-17T20:48:04.752Z,10.32
2022-11-17T20:50:32.248Z,10.32
2022-11-17T20:52:59.444Z,10.36
2022-11-17T20:55:26.704Z,10.38
2022-11-17T20:57:56.442Z,10.38
2022-11-17T21:00:23.902Z,10.41
2022-11-17T21:02:51.166Z,10.42
2022-11-17T21:05:18.472Z,10.48
2022-11-17T21:07:45.771Z,10.44
2022-11-17T21:10:12.900Z,10.41
2022-11-17T21:12:40.181Z,10.38
2022-11-17T21:15:08.104Z,10.35
2022-11-17T21:17:54.281Z,10.31
2022-11-17T21:20:21.584Z,10.26
2022-11-17T21:22:49.116Z,10.22
2022-11-17T21:25:16.493Z,10.20
2022-11-17T21:27:44.430Z,10.13
2022-11-17T21:30:12.528Z,10.12
2022-11-17T21:32:43.082Z,10.13
2022-11-17T21:35:11.248Z,10.08
2022-11-17T21:37:39.022Z,10.01
2022-11-17T21:40:07.062Z,9.95
2022-11-17T21:42:34.446Z,9.93
2022-11-17T21:45:02.357Z,9.90
2022-11-17T21:47:33.524Z,9.88
2022-11-17T21:50:01.036Z,9.82
2022-11-17T21:52:28.342Z,9.79
2022-11-17T21:54:55.781Z,9.80
2022-11-17T21:57:23.495Z,9.80
2022-11-17T21:59:54.196Z,9.74
2022-11-17T22:02:24.053Z,9.67
2022-11-17T22:04:52.604Z,9.69
2022-11-17T22:07:20.190Z,9.63
2022-11-17T22:09:47.328Z,9.64
2022-11-17T22:12:15.189Z,9.61
2022-11-17T22:14:48.254Z,9.56
2022-11-17T22:17:16.660Z,9.56
2022-11-17T22:19:43.913Z,9.53
2022-11-17T22:22:11.563Z,9.48
2022-11-17T22:24:39.843Z,9.53
2022-11-17T22:27:07.564Z,9.52
2022-11-17T22:29:35.177Z,9.52
2022-11-17T22:32:07.374Z,9.50
2022-11-17T22:34:38.683Z,9.50
2022-11-17T22:37:06.343Z,9.48
2022-11-17T22:39:34.206Z,9.47
2022-11-17T22:42:01.584Z,9.42
2022-11-17T22:44:30.038Z,9.36
2022-11-17T22:46:57.790Z,9.34
2022-11-17T22:49:25.422Z,9.25
2022-11-17T22:52:04.429Z,9.25
2022-11-17T22:54:32.147Z,9.15
2022-11-17T22:56:59.548Z,9.27
2022-11-17T22:59:27.950Z,9.13
2022-11-17T23:01:56.323Z,9.24
2022-11-17T23:04:23.991Z,9.24
2022-11-17T23:06:51.596Z,9.21
2022-11-17T23:09:19.251Z,9.16
2022-11-17T23:11:46.636Z,9.16
2022-11-17T23:14:15.022Z,8.93
2022-11-17T23:16:42.270Z,9.07
2022-11-17T23:19:14.231Z,9.12
2022-11-17T23:21:42.272Z,9.12
2022-11-17T23:24:11.300Z,9.13
2022-11-17T23:26:40.285Z,9.21
2022-11-17T23:29:08.314Z,9.26
2022-11-17T23:31:35.938Z,9.24
2022-11-17T23:34:03.503Z,9.24
2022-11-17T23:36:30.588Z,9.20
2022-11-17T23:38:58.178Z,9.16
2022-11-17T23:41:25.522Z,9.13
2022-11-17T23:43:53.985Z,9.18
2022-11-17T23:46:24.061Z,9.13
2022-11-17T23:48:51.548Z,9.12
2022-11-17T23:51:23.747Z,9.09
2022-11-17T23:53:51.292Z,9.11
2022-11-17T23:56:22.659Z,9.20
2022-11-17T23:58:51.121Z,9.27
